sensor_id;sensor_type;location;lat;lon;timestamp;temperature;humidity
53599;DHT22;39485;45.702;11.364;2023-09-19T00:00:42;18.80;99.90
53599;DHT22;39485;45.702;11.364;2023-09-19T00:03:09;18.80;99.90
53599;DHT22;39485;45.702;11.364;2023-09-19T00:05:36;18.80;99.90
53599;DHT22;39485;45.702;11.364;2023-09-19T00:08:04;18.70;99.90
53599;DHT22;39485;45.702;11.364;2023-09-19T00:10:30;18.80;99.90
53599;DHT22;39485;45.702;11.364;2023-09-19T00:12:59;18.70;99.90
53599;DHT22;39485;45.702;11.364;2023-09-19T00:15:26;18.70;99.90
53599;DHT22;39485;45.702;11.364;2023-09-19T00:17:56;18.70;99.90
53599;DHT22;39485;45.702;11.364;2023-09-19T00:20:22;18.70;99.90
53599;DHT22;39485;45.702;11.364;2023-09-19T00:22:50;18.80;99.90
53599;DHT22;39485;45.702;11.364;2023-09-19T00:25:19;18.80;99.90
53599;DHT22;39485;45.702;11.364;2023-09-19T00:27:46;18.80;99.90
53599;DHT22;39485;45.702;11.364;2023-09-19T00:30:15;18.70;99.90
53599;DHT22;39485;45.702;11.364;2023-09-19T00:32:46;18.80;99.90
53599;DHT22;39485;45.702;11.364;2023-09-19T00:35:15;18.80;99.90
53599;DHT22;39485;45.702;11.364;2023-09-19T00:37:41;18.80;99.90
53599;DHT22;39485;45.702;11.364;2023-09-19T00:40:08;18.80;99.90
53599;DHT22;39485;45.702;11.364;2023-09-19T00:42:47;18.80;99.90
53599;DHT22;39485;45.702;11.364;2023-09-19T00:45:14;18.80;99.90
53599;DHT22;39485;45.702;11.364;2023-09-19T00:47:42;18.70;99.90
53599;DHT22;39485;45.702;11.364;2023-09-19T00:50:10;18.80;99.90
53599;DHT22;39485;45.702;11.364;2023-09-19T00:52:39;18.70;99.90
53599;DHT22;39485;45.702;11.364;2023-09-19T00:55:09;18.70;99.90
53599;DHT22;39485;45.702;11.364;2023-09-19T00:57:36;18.70;99.90
53599;DHT22;39485;45.702;11.364;2023-09-19T01:00:04;18.70;99.90
53599;DHT22;39485;45.702;11.364;2023-09-19T01:02:32;18.70;99.90
53599;DHT22;39485;45.702;11.364;2023-09-19T01:05:01;18.60;99.90
53599;DHT22;39485;45.702;11.364;2023-09-19T01:07:28;18.60;99.90
53599;DHT22;39485;45.702;11.364;2023-09-19T01:10:08;18.60;99.90
53599;DHT22;39485;45.702;11.364;2023-09-19T01:13:12;18.60;99.90
53599;DHT22;39485;45.702;11.364;2023-09-19T01:15:47;18.50;99.90
53599;DHT22;39485;45.702;11.364;2023-09-19T01:21:27;18.60;99.90
53599;DHT22;39485;45.702;11.364;2023-09-19T01:29:38;18.50;99.90
53599;DHT22;39485;45.702;11.364;2023-09-19T01:32:05;18.50;99.90
53599;DHT22;39485;45.702;11.364;2023-09-19T01:35:04;18.50;99.90
53599;DHT22;39485;45.702;11.364;2023-09-19T01:37:30;18.50;99.90
53599;DHT22;39485;45.702;11.364;2023-09-19T01:40:05;18.50;99.90
53599;DHT22;39485;45.702;11.364;2023-09-19T01:50:56;18.50;99.90
53599;DHT22;39485;45.702;11.364;2023-09-19T01:53:30;18.50;99.90
53599;DHT22;39485;45.702;11.364;2023-09-19T01:55:58;18.50;99.90
53599;DHT22;39485;45.702;11.364;2023-09-19T01:58:45;18.40;99.90
53599;DHT22;39485;45.702;11.364;2023-09-19T02:01:17;18.40;99.90
53599;DHT22;39485;45.702;11.364;2023-09-19T02:03:44;18.40;99.90
53599;DHT22;39485;45.702;11.364;2023-09-19T02:06:15;18.30;99.90
53599;DHT22;39485;45.702;11.364;2023-09-19T02:08:41;18.30;99.90
53599;DHT22;39485;45.702;11.364;2023-09-19T02:11:07;18.30;99.90
53599;DHT22;39485;45.702;11.364;2023-09-19T02:13:32;18.30;99.90
53599;DHT22;39485;45.702;11.364;2023-09-19T02:15:59;18.30;99.90
53599;DHT22;39485;45.702;11.364;2023-09-19T02:18:25;18.20;99.90
53599;DHT22;39485;45.702;11.364;2023-09-19T02:20:53;18.20;99.90
53599;DHT22;39485;45.702;11.364;2023-09-19T02:23:20;18.20;99.90
53599;DHT22;39485;45.702;11.364;2023-09-19T02:25:52;18.20;99.90
53599;DHT22;39485;45.702;11.364;2023-09-19T02:28:19;18.20;99.90
53599;DHT22;39485;45.702;11.364;2023-09-19T02:30:48;18.20;99.90
53599;DHT22;39485;45.702;11.364;2023-09-19T02:33:14;18.20;99.90
53599;DHT22;39485;45.702;11.364;2023-09-19T02:35:40;18.10;99.90
53599;DHT22;39485;45.702;11.364;2023-09-19T02:38:06;18.10;99.90
53599;DHT22;39485;45.702;11.364;2023-09-19T02:40:37;18.10;99.90
53599;DHT22;39485;45.702;11.364;2023-09-19T02:43:03;18.10;99.90
53599;DHT22;39485;45.702;11.364;2023-09-19T02:45:28;18.00;99.90
53599;DHT22;39485;45.702;11.364;2023-09-19T02:47:55;18.00;99.90
53599;DHT22;39485;45.702;11.364;2023-09-19T02:50:21;18.00;99.90
53599;DHT22;39485;45.702;11.364;2023-09-19T02:52:47;18.00;99.90
53599;DHT22;39485;45.702;11.364;2023-09-19T02:55:15;18.00;99.90
53599;DHT22;39485;45.702;11.364;2023-09-19T02:57:49;18.00;99.90
53599;DHT22;39485;45.702;11.364;2023-09-19T03:00:15;18.00;99.90
53599;DHT22;39485;45.702;11.364;2023-09-19T03:02:42;17.90;99.90
53599;DHT22;39485;45.702;11.364;2023-09-19T03:05:08;17.90;99.90
53599;DHT22;39485;45.702;11.364;2023-09-19T03:07:36;17.90;99.90
53599;DHT22;39485;45.702;11.364;2023-09-19T03:10:05;17.90;99.90
53599;DHT22;39485;45.702;11.364;2023-09-19T03:12:31;17.90;99.90
53599;DHT22;39485;45.702;11.364;2023-09-19T03:14:57;18.00;99.90
53599;DHT22;39485;45.702;11.364;2023-09-19T03:17:23;18.00;99.90
53599;DHT22;39485;45.702;11.364;2023-09-19T03:19:48;17.90;99.90
53599;DHT22;39485;45.702;11.364;2023-09-19T03:22:15;18.00;99.90
53599;DHT22;39485;45.702;11.364;2023-09-19T03:24:41;18.00;99.90
53599;DHT22;39485;45.702;11.364;2023-09-19T03:27:11;18.00;99.90
53599;DHT22;39485;45.702;11.364;2023-09-19T03:29:39;17.90;99.90
53599;DHT22;39485;45.702;11.364;2023-09-19T03:32:05;17.90;99.90
53599;DHT22;39485;45.702;11.364;2023-09-19T03:34:31;17.90;99.90
53599;DHT22;39485;45.702;11.364;2023-09-19T03:36:57;17.90;99.90
53599;DHT22;39485;45.702;11.364;2023-09-19T03:39:22;17.90;99.90
53599;DHT22;39485;45.702;11.364;2023-09-19T03:41:48;17.90;99.90
53599;DHT22;39485;45.702;11.364;2023-09-19T03:44:15;17.90;99.90
53599;DHT22;39485;45.702;11.364;2023-09-19T03:46:40;17.90;99.90
53599;DHT22;39485;45.702;11.364;2023-09-19T03:49:06;17.90;99.90
53599;DHT22;39485;45.702;11.364;2023-09-19T03:51:32;18.00;99.90
53599;DHT22;39485;45.702;11.364;2023-09-19T03:53:59;17.90;99.90
53599;DHT22;39485;45.702;11.364;2023-09-19T03:56:25;18.00;99.90
53599;DHT22;39485;45.702;11.364;2023-09-19T03:58:51;18.00;99.90
53599;DHT22;39485;45.702;11.364;2023-09-19T04:01:16;17.90;99.90
53599;DHT22;39485;45.702;11.364;2023-09-19T04:03:44;18.00;99.90
53599;DHT22;39485;45.702;11.364;2023-09-19T04:06:16;17.90;99.90
53599;DHT22;39485;45.702;11.364;2023-09-19T04:08:43;17.90;99.90
53599;DHT22;39485;45.702;11.364;2023-09-19T04:11:10;17.90;99.90
53599;DHT22;39485;45.702;11.364;2023-09-19T04:13:36;17.90;99.90
53599;DHT22;39485;45.702;11.364;2023-09-19T04:16:02;17.90;99.90
53599;DHT22;39485;45.702;11.364;2023-09-19T04:18:32;17.90;99.90
53599;DHT22;39485;45.702;11.364;2023-09-19T04:20:59;17.90;99.90
53599;DHT22;39485;45.702;11.364;2023-09-19T04:23:28;17.90;99.90
53599;DHT22;39485;45.702;11.364;2023-09-19T04:25:54;17.90;99.90
53599;DHT22;39485;45.702;11.364;2023-09-19T04:28:19;17.90;99.90
53599;DHT22;39485;45.702;11.364;2023-09-19T04:30:45;17.90;99.90
53599;DHT22;39485;45.702;11.364;2023-09-19T04:33:11;17.90;99.90
53599;DHT22;39485;45.702;11.364;2023-09-19T04:35:40;17.80;99.90
53599;DHT22;39485;45.702;11.364;2023-09-19T04:38:08;17.90;99.90
53599;DHT22;39485;45.702;11.364;2023-09-19T04:40:34;17.90;99.90
53599;DHT22;39485;45.702;11.364;2023-09-19T04:43:00;17.90;99.90
53599;DHT22;39485;45.702;11.364;2023-09-19T04:45:27;17.80;99.90
53599;DHT22;39485;45.702;11.364;2023-09-19T04:47:54;17.90;99.90
53599;DHT22;39485;45.702;11.364;2023-09-19T04:50:20;17.80;99.90
53599;DHT22;39485;45.702;11.364;2023-09-19T04:52:49;17.80;99.90
53599;DHT22;39485;45.702;11.364;2023-09-19T04:55:17;17.80;99.90
53599;DHT22;39485;45.702;11.364;2023-09-19T04:57:48;17.80;99.90
53599;DHT22;39485;45.702;11.364;2023-09-19T05:00:16;17.80;99.90
53599;DHT22;39485;45.702;11.364;2023-09-19T05:02:43;17.80;99.90
53599;DHT22;39485;45.702;11.364;2023-09-19T05:05:09;17.70;99.90
53599;DHT22;39485;45.702;11.364;2023-09-19T05:07:44;17.70;99.90
53599;DHT22;39485;45.702;11.364;2023-09-19T05:10:10;17.70;99.90
53599;DHT22;39485;45.702;11.364;2023-09-19T05:12:37;17.70;99.90
53599;DHT22;39485;45.702;11.364;2023-09-19T05:15:04;17.70;99.90
53599;DHT22;39485;45.702;11.364;2023-09-19T05:17:30;17.70;99.90
53599;DHT22;39485;45.702;11.364;2023-09-19T05:19:57;17.70;99.90
53599;DHT22;39485;45.702;11.364;2023-09-19T05:22:34;17.70;99.90
53599;DHT22;39485;45.702;11.364;2023-09-19T05:25:00;17.70;99.90
53599;DHT22;39485;45.702;11.364;2023-09-19T05:27:28;17.70;99.90
53599;DHT22;39485;45.702;11.364;2023-09-19T05:29:54;17.70;99.90
53599;DHT22;39485;45.702;11.364;2023-09-19T05:32:21;17.80;99.90
53599;DHT22;39485;45.702;11.364;2023-09-19T05:34:49;17.80;99.90
53599;DHT22;39485;45.702;11.364;2023-09-19T05:37:18;17.80;99.90
53599;DHT22;39485;45.702;11.364;2023-09-19T05:39:44;17.80;99.90
53599;DHT22;39485;45.702;11.364;2023-09-19T05:42:09;17.80;99.90
53599;DHT22;39485;45.702;11.364;2023-09-19T05:44:35;17.80;99.90
53599;DHT22;39485;45.702;11.364;2023-09-19T05:47:04;17.90;99.90
53599;DHT22;39485;45.702;11.364;2023-09-19T05:49:30;17.90;99.90
53599;DHT22;39485;45.702;11.364;2023-09-19T05:51:56;17.90;99.90
53599;DHT22;39485;45.702;11.364;2023-09-19T05:54:22;17.90;99.90
53599;DHT22;39485;45.702;11.364;2023-09-19T05:56:48;17.90;99.90
53599;DHT22;39485;45.702;11.364;2023-09-19T05:59:18;18.00;99.90
53599;DHT22;39485;45.702;11.364;2023-09-19T06:01:43;18.00;99.90
53599;DHT22;39485;45.702;11.364;2023-09-19T06:04:09;18.00;99.90
53599;DHT22;39485;45.702;11.364;2023-09-19T06:06:35;18.10;99.90
53599;DHT22;39485;45.702;11.364;2023-09-19T06:09:05;18.10;99.90
53599;DHT22;39485;45.702;11.364;2023-09-19T06:11:31;18.10;99.90
53599;DHT22;39485;45.702;11.364;2023-09-19T06:14:03;18.30;99.90
53599;DHT22;39485;45.702;11.364;2023-09-19T06:16:31;18.30;99.90
53599;DHT22;39485;45.702;11.364;2023-09-19T06:19:00;18.40;99.90
53599;DHT22;39485;45.702;11.364;2023-09-19T06:21:27;18.50;99.90
53599;DHT22;39485;45.702;11.364;2023-09-19T06:23:53;18.60;99.90
53599;DHT22;39485;45.702;11.364;2023-09-19T06:26:19;18.70;99.90
53599;DHT22;39485;45.702;11.364;2023-09-19T06:28:45;18.80;99.90
53599;DHT22;39485;45.702;11.364;2023-09-19T06:31:11;18.90;99.90
53599;DHT22;39485;45.702;11.364;2023-09-19T06:33:37;19.00;99.90
53599;DHT22;39485;45.702;11.364;2023-09-19T06:36:05;19.10;99.90
53599;DHT22;39485;45.702;11.364;2023-09-19T06:38:30;19.20;99.90
53599;DHT22;39485;45.702;11.364;2023-09-19T06:40:58;19.20;99.90
53599;DHT22;39485;45.702;11.364;2023-09-19T06:43:24;19.30;99.90
53599;DHT22;39485;45.702;11.364;2023-09-19T06:45:50;19.40;99.90
53599;DHT22;39485;45.702;11.364;2023-09-19T06:48:20;19.40;99.90
53599;DHT22;39485;45.702;11.364;2023-09-19T06:50:46;19.60;99.90
53599;DHT22;39485;45.702;11.364;2023-09-19T06:53:13;19.70;99.90
53599;DHT22;39485;45.702;11.364;2023-09-19T06:55:39;19.80;99.90
53599;DHT22;39485;45.702;11.364;2023-09-19T06:58:05;19.90;99.90
53599;DHT22;39485;45.702;11.364;2023-09-19T07:00:33;20.00;99.90
53599;DHT22;39485;45.702;11.364;2023-09-19T07:03:03;20.10;99.90
53599;DHT22;39485;45.702;11.364;2023-09-19T07:05:30;20.20;99.90
53599;DHT22;39485;45.702;11.364;2023-09-19T07:07:57;20.30;99.90
53599;DHT22;39485;45.702;11.364;2023-09-19T07:10:25;20.40;99.90
53599;DHT22;39485;45.702;11.364;2023-09-19T07:12:58;20.50;99.90
53599;DHT22;39485;45.702;11.364;2023-09-19T07:15:25;20.60;99.90
53599;DHT22;39485;45.702;11.364;2023-09-19T07:17:55;20.70;99.90
53599;DHT22;39485;45.702;11.364;2023-09-19T07:20:22;20.80;99.90
53599;DHT22;39485;45.702;11.364;2023-09-19T07:22:49;20.80;99.90
53599;DHT22;39485;45.702;11.364;2023-09-19T07:25:16;20.90;99.90
53599;DHT22;39485;45.702;11.364;2023-09-19T07:27:42;20.90;99.90
53599;DHT22;39485;45.702;11.364;2023-09-19T07:30:09;21.00;99.90
53599;DHT22;39485;45.702;11.364;2023-09-19T07:32:35;21.00;99.90
53599;DHT22;39485;45.702;11.364;2023-09-19T07:35:05;21.10;99.90
53599;DHT22;39485;45.702;11.364;2023-09-19T07:37:34;21.20;99.90
53599;DHT22;39485;45.702;11.364;2023-09-19T07:40:00;21.30;99.90
53599;DHT22;39485;45.702;11.364;2023-09-19T07:42:38;21.40;99.90
53599;DHT22;39485;45.702;11.364;2023-09-19T07:45:07;21.50;99.90
53599;DHT22;39485;45.702;11.364;2023-09-19T07:47:33;21.70;99.90
53599;DHT22;39485;45.702;11.364;2023-09-19T07:50:00;21.70;99.90
53599;DHT22;39485;45.702;11.364;2023-09-19T07:52:29;21.80;99.90
53599;DHT22;39485;45.702;11.364;2023-09-19T07:54:55;21.90;99.90
53599;DHT22;39485;45.702;11.364;2023-09-19T07:57:22;21.90;99.90
53599;DHT22;39485;45.702;11.364;2023-09-19T07:59:48;21.90;99.90
53599;DHT22;39485;45.702;11.364;2023-09-19T08:02:14;21.90;99.90
53599;DHT22;39485;45.702;11.364;2023-09-19T08:04:44;21.90;99.90
53599;DHT22;39485;45.702;11.364;2023-09-19T08:07:12;22.00;99.90
53599;DHT22;39485;45.702;11.364;2023-09-19T08:09:39;22.10;99.90
53599;DHT22;39485;45.702;11.364;2023-09-19T08:12:06;22.10;99.90
53599;DHT22;39485;45.702;11.364;2023-09-19T08:14:33;22.20;99.90
53599;DHT22;39485;45.702;11.364;2023-09-19T08:16:59;22.20;99.90
53599;DHT22;39485;45.702;11.364;2023-09-19T08:19:26;22.30;99.90
53599;DHT22;39485;45.702;11.364;2023-09-19T08:21:58;22.30;99.90
53599;DHT22;39485;45.702;11.364;2023-09-19T08:24:25;22.40;99.90
53599;DHT22;39485;45.702;11.364;2023-09-19T08:26:53;22.40;99.90
53599;DHT22;39485;45.702;11.364;2023-09-19T08:29:20;22.50;99.90
53599;DHT22;39485;45.702;11.364;2023-09-19T08:31:46;22.60;99.90
53599;DHT22;39485;45.702;11.364;2023-09-19T08:34:15;22.60;99.90
53599;DHT22;39485;45.702;11.364;2023-09-19T08:36:41;22.70;99.90
53599;DHT22;39485;45.702;11.364;2023-09-19T08:39:09;22.80;99.90
53599;DHT22;39485;45.702;11.364;2023-09-19T08:41:34;22.80;99.90
53599;DHT22;39485;45.702;11.364;2023-09-19T08:44:00;22.90;99.90
53599;DHT22;39485;45.702;11.364;2023-09-19T08:46:31;23.00;99.90
53599;DHT22;39485;45.702;11.364;2023-09-19T08:49:05;23.00;99.90
53599;DHT22;39485;45.702;11.364;2023-09-19T08:51:43;23.10;99.90
53599;DHT22;39485;45.702;11.364;2023-09-19T08:54:23;23.10;99.90
53599;DHT22;39485;45.702;11.364;2023-09-19T08:56:54;23.20;99.90
53599;DHT22;39485;45.702;11.364;2023-09-19T08:59:23;23.30;99.90
53599;DHT22;39485;45.702;11.364;2023-09-19T09:01:50;23.30;99.90
53599;DHT22;39485;45.702;11.364;2023-09-19T09:04:19;23.30;99.90
53599;DHT22;39485;45.702;11.364;2023-09-19T09:06:46;23.40;99.90
53599;DHT22;39485;45.702;11.364;2023-09-19T09:09:15;23.40;99.90
53599;DHT22;39485;45.702;11.364;2023-09-19T09:11:41;23.50;99.90
53599;DHT22;39485;45.702;11.364;2023-09-19T09:14:07;23.50;99.90
53599;DHT22;39485;45.702;11.364;2023-09-19T09:16:34;23.60;99.90
53599;DHT22;39485;45.702;11.364;2023-09-19T09:19:00;23.60;99.90
53599;DHT22;39485;45.702;11.364;2023-09-19T09:21:27;23.70;99.90
53599;DHT22;39485;45.702;11.364;2023-09-19T09:23:54;23.80;99.90
53599;DHT22;39485;45.702;11.364;2023-09-19T09:29:04;23.90;99.90
53599;DHT22;39485;45.702;11.364;2023-09-19T09:31:30;23.90;99.90
53599;DHT22;39485;45.702;11.364;2023-09-19T09:33:57;23.90;99.90
53599;DHT22;39485;45.702;11.364;2023-09-19T09:36:37;23.90;99.90
53599;DHT22;39485;45.702;11.364;2023-09-19T09:39:03;24.00;99.90
53599;DHT22;39485;45.702;11.364;2023-09-19T09:41:42;24.10;99.90
53599;DHT22;39485;45.702;11.364;2023-09-19T09:44:17;24.10;99.90
53599;DHT22;39485;45.702;11.364;2023-09-19T09:46:47;24.20;99.90
53599;DHT22;39485;45.702;11.364;2023-09-19T09:49:23;24.20;99.90
53599;DHT22;39485;45.702;11.364;2023-09-19T09:52:06;24.30;99.90
53599;DHT22;39485;45.702;11.364;2023-09-19T09:57:25;24.30;99.90
53599;DHT22;39485;45.702;11.364;2023-09-19T09:59:56;24.40;99.90
53599;DHT22;39485;45.702;11.364;2023-09-19T10:02:43;24.40;99.90
53599;DHT22;39485;45.702;11.364;2023-09-19T10:05:19;24.50;99.90
53599;DHT22;39485;45.702;11.364;2023-09-19T10:07:46;24.50;99.90
53599;DHT22;39485;45.702;11.364;2023-09-19T10:10:49;24.60;99.90
53599;DHT22;39485;45.702;11.364;2023-09-19T10:13:20;24.60;99.90
53599;DHT22;39485;45.702;11.364;2023-09-19T10:15:51;24.60;99.90
53599;DHT22;39485;45.702;11.364;2023-09-19T10:18:25;24.60;99.90
53599;DHT22;39485;45.702;11.364;2023-09-19T10:21:33;24.60;99.90
53599;DHT22;39485;45.702;11.364;2023-09-19T10:28:08;24.60;99.90
53599;DHT22;39485;45.702;11.364;2023-09-19T10:30:45;24.70;99.90
53599;DHT22;39485;45.702;11.364;2023-09-19T10:36:48;24.80;99.90
53599;DHT22;39485;45.702;11.364;2023-09-19T10:39:16;24.80;99.90
53599;DHT22;39485;45.702;11.364;2023-09-19T10:42:15;24.90;99.90
53599;DHT22;39485;45.702;11.364;2023-09-19T10:44:59;24.90;99.90
53599;DHT22;39485;45.702;11.364;2023-09-19T10:47:29;24.90;99.90
53599;DHT22;39485;45.702;11.364;2023-09-19T10:50:03;24.90;99.90
53599;DHT22;39485;45.702;11.364;2023-09-19T10:52:31;24.90;99.90
53599;DHT22;39485;45.702;11.364;2023-09-19T10:55:03;25.00;99.90
53599;DHT22;39485;45.702;11.364;2023-09-19T10:57:32;25.00;99.90
53599;DHT22;39485;45.702;11.364;2023-09-19T11:00:09;25.00;99.90
53599;DHT22;39485;45.702;11.364;2023-09-19T11:05:37;25.10;99.90
53599;DHT22;39485;45.702;11.364;2023-09-19T11:08:07;25.10;99.90
53599;DHT22;39485;45.702;11.364;2023-09-19T11:10:46;25.10;99.90
53599;DHT22;39485;45.702;11.364;2023-09-19T11:13:25;25.10;99.90
53599;DHT22;39485;45.702;11.364;2023-09-19T11:26:45;25.20;99.90
53599;DHT22;39485;45.702;11.364;2023-09-19T11:31:52;25.30;99.90
53599;DHT22;39485;45.702;11.364;2023-09-19T11:34:43;25.30;99.90
53599;DHT22;39485;45.702;11.364;2023-09-19T11:42:48;25.40;99.90
53599;DHT22;39485;45.702;11.364;2023-09-19T11:48:18;25.50;99.90
53599;DHT22;39485;45.702;11.364;2023-09-19T11:50:45;25.50;99.90
53599;DHT22;39485;45.702;11.364;2023-09-19T11:53:13;25.50;99.90
53599;DHT22;39485;45.702;11.364;2023-09-19T11:55:40;25.50;99.90
53599;DHT22;39485;45.702;11.364;2023-09-19T11:58:09;25.60;99.90
53599;DHT22;39485;45.702;11.364;2023-09-19T12:00:38;25.60;99.90
53599;DHT22;39485;45.702;11.364;2023-09-19T12:03:09;25.60;99.90
53599;DHT22;39485;45.702;11.364;2023-09-19T12:05:36;25.60;99.90
53599;DHT22;39485;45.702;11.364;2023-09-19T12:08:04;25.70;99.90
53599;DHT22;39485;45.702;11.364;2023-09-19T12:10:33;25.70;99.90
53599;DHT22;39485;45.702;11.364;2023-09-19T12:12:59;25.70;99.90
53599;DHT22;39485;45.702;11.364;2023-09-19T12:15:25;25.70;99.90
53599;DHT22;39485;45.702;11.364;2023-09-19T12:18:00;25.70;99.90
53599;DHT22;39485;45.702;11.364;2023-09-19T12:20:43;25.70;99.90
53599;DHT22;39485;45.702;11.364;2023-09-19T12:23:15;25.70;99.90
53599;DHT22;39485;45.702;11.364;2023-09-19T12:25:44;25.80;99.90
53599;DHT22;39485;45.702;11.364;2023-09-19T12:28:18;25.80;99.90
53599;DHT22;39485;45.702;11.364;2023-09-19T12:30:43;25.80;99.90
53599;DHT22;39485;45.702;11.364;2023-09-19T12:33:19;25.90;99.90
53599;DHT22;39485;45.702;11.364;2023-09-19T12:35:46;25.90;99.90
53599;DHT22;39485;45.702;11.364;2023-09-19T12:38:28;26.00;99.90
53599;DHT22;39485;45.702;11.364;2023-09-19T12:40:57;26.00;99.90
53599;DHT22;39485;45.702;11.364;2023-09-19T12:43:31;25.90;99.90
53599;DHT22;39485;45.702;11.364;2023-09-19T12:52:50;26.00;99.90
53599;DHT22;39485;45.702;11.364;2023-09-19T12:55:30;26.00;99.90
53599;DHT22;39485;45.702;11.364;2023-09-19T12:58:12;26.10;99.90
53599;DHT22;39485;45.702;11.364;2023-09-19T13:00:43;26.10;99.90
53599;DHT22;39485;45.702;11.364;2023-09-19T13:03:39;26.10;99.90
53599;DHT22;39485;45.702;11.364;2023-09-19T13:06:14;26.10;99.90
53599;DHT22;39485;45.702;11.364;2023-09-19T13:09:27;26.10;99.90
53599;DHT22;39485;45.702;11.364;2023-09-19T13:12:39;26.10;99.90
53599;DHT22;39485;45.702;11.364;2023-09-19T13:15:12;26.10;99.90
53599;DHT22;39485;45.702;11.364;2023-09-19T13:17:50;26.10;99.90
53599;DHT22;39485;45.702;11.364;2023-09-19T13:20:25;26.10;99.90
53599;DHT22;39485;45.702;11.364;2023-09-19T13:22:55;26.10;99.90
53599;DHT22;39485;45.702;11.364;2023-09-19T13:25:42;26.20;99.90
53599;DHT22;39485;45.702;11.364;2023-09-19T13:28:11;26.20;99.90
53599;DHT22;39485;45.702;11.364;2023-09-19T13:30:37;26.20;99.90
53599;DHT22;39485;45.702;11.364;2023-09-19T13:36:04;26.30;99.90
53599;DHT22;39485;45.702;11.364;2023-09-19T13:38:31;26.20;99.90
53599;DHT22;39485;45.702;11.364;2023-09-19T13:40:56;26.30;99.90
53599;DHT22;39485;45.702;11.364;2023-09-19T13:43:31;26.30;99.90
53599;DHT22;39485;45.702;11.364;2023-09-19T13:46:06;26.30;99.90
53599;DHT22;39485;45.702;11.364;2023-09-19T13:48:43;26.30;99.90
53599;DHT22;39485;45.702;11.364;2023-09-19T13:51:08;26.20;99.90
53599;DHT22;39485;45.702;11.364;2023-09-19T13:53:34;26.30;99.90
53599;DHT22;39485;45.702;11.364;2023-09-19T13:56:00;26.30;99.90
53599;DHT22;39485;45.702;11.364;2023-09-19T13:58:26;26.30;99.90
53599;DHT22;39485;45.702;11.364;2023-09-19T14:00:53;26.30;99.90
53599;DHT22;39485;45.702;11.364;2023-09-19T14:03:21;26.30;99.90
53599;DHT22;39485;45.702;11.364;2023-09-19T14:05:47;26.20;99.90
53599;DHT22;39485;45.702;11.364;2023-09-19T14:08:13;26.20;99.90
53599;DHT22;39485;45.702;11.364;2023-09-19T14:10:39;26.10;99.90
53599;DHT22;39485;45.702;11.364;2023-09-19T14:13:05;26.10;99.90
53599;DHT22;39485;45.702;11.364;2023-09-19T14:15:30;26.10;99.90
53599;DHT22;39485;45.702;11.364;2023-09-19T14:17:58;26.20;99.90
53599;DHT22;39485;45.702;11.364;2023-09-19T14:20:25;26.20;99.90
53599;DHT22;39485;45.702;11.364;2023-09-19T14:22:53;26.20;99.90
53599;DHT22;39485;45.702;11.364;2023-09-19T14:25:19;26.20;99.90
53599;DHT22;39485;45.702;11.364;2023-09-19T14:27:46;26.20;99.90
53599;DHT22;39485;45.702;11.364;2023-09-19T14:30:13;26.10;99.90
53599;DHT22;39485;45.702;11.364;2023-09-19T14:32:39;26.10;99.90
53599;DHT22;39485;45.702;11.364;2023-09-19T14:35:06;26.10;99.90
53599;DHT22;39485;45.702;11.364;2023-09-19T14:37:32;26.10;99.90
53599;DHT22;39485;45.702;11.364;2023-09-19T14:39:58;26.00;99.90
53599;DHT22;39485;45.702;11.364;2023-09-19T14:42:23;26.00;99.90
53599;DHT22;39485;45.702;11.364;2023-09-19T14:44:49;26.00;99.90
53599;DHT22;39485;45.702;11.364;2023-09-19T14:47:15;25.90;99.90
53599;DHT22;39485;45.702;11.364;2023-09-19T14:49:42;25.90;99.90
53599;DHT22;39485;45.702;11.364;2023-09-19T14:52:09;25.90;99.90
53599;DHT22;39485;45.702;11.364;2023-09-19T14:54:36;25.90;99.90
53599;DHT22;39485;45.702;11.364;2023-09-19T14:57:04;25.90;99.90
53599;DHT22;39485;45.702;11.364;2023-09-19T14:59:33;25.90;99.90
53599;DHT22;39485;45.702;11.364;2023-09-19T17:39:24;23.70;99.90
53599;DHT22;39485;45.702;11.364;2023-09-19T17:41:53;23.70;99.90
53599;DHT22;39485;45.702;11.364;2023-09-19T17:48:22;23.60;99.90
53599;DHT22;39485;45.702;11.364;2023-09-19T17:54:47;23.60;99.90
53599;DHT22;39485;45.702;11.364;2023-09-19T18:00:25;23.50;99.90
53599;DHT22;39485;45.702;11.364;2023-09-19T18:09:49;23.30;99.90
53599;DHT22;39485;45.702;11.364;2023-09-19T18:19:45;23.10;99.90
53599;DHT22;39485;45.702;11.364;2023-09-19T18:23:00;23.00;99.90
53599;DHT22;39485;45.702;11.364;2023-09-19T18:25:58;22.90;99.90
53599;DHT22;39485;45.702;11.364;2023-09-19T18:29:34;22.90;99.90
53599;DHT22;39485;45.702;11.364;2023-09-19T18:31:46;22.90;99.90
53599;DHT22;39485;45.702;11.364;2023-09-19T18:34:14;22.80;99.90
53599;DHT22;39485;45.702;11.364;2023-09-19T18:36:53;22.80;99.90
53599;DHT22;39485;45.702;11.364;2023-09-19T18:39:24;22.80;99.90
53599;DHT22;39485;45.702;11.364;2023-09-19T18:42:02;22.80;99.90
53599;DHT22;39485;45.702;11.364;2023-09-19T18:45:15;22.70;99.90
53599;DHT22;39485;45.702;11.364;2023-09-19T18:48:01;22.70;99.90
53599;DHT22;39485;45.702;11.364;2023-09-19T18:56:57;22.50;99.90
53599;DHT22;39485;45.702;11.364;2023-09-19T18:59:34;22.40;99.90
53599;DHT22;39485;45.702;11.364;2023-09-19T19:02:19;22.40;99.90
53599;DHT22;39485;45.702;11.364;2023-09-19T19:04:48;22.30;99.90
53599;DHT22;39485;45.702;11.364;2023-09-19T19:14:20;22.20;99.90
53599;DHT22;39485;45.702;11.364;2023-09-19T19:16:47;22.10;99.90
53599;DHT22;39485;45.702;11.364;2023-09-19T19:19:12;22.10;99.90
53599;DHT22;39485;45.702;11.364;2023-09-19T19:21:39;22.00;99.90
53599;DHT22;39485;45.702;11.364;2023-09-19T19:24:05;22.00;99.90
53599;DHT22;39485;45.702;11.364;2023-09-19T19:26:31;21.90;99.90
53599;DHT22;39485;45.702;11.364;2023-09-19T19:28:56;21.80;99.90
53599;DHT22;39485;45.702;11.364;2023-09-19T19:31:22;21.80;99.90
53599;DHT22;39485;45.702;11.364;2023-09-19T19:33:50;21.70;99.90
53599;DHT22;39485;45.702;11.364;2023-09-19T19:36:18;21.70;99.90
53599;DHT22;39485;45.702;11.364;2023-09-19T19:38:47;21.70;99.90
53599;DHT22;39485;45.702;11.364;2023-09-19T19:41:14;21.60;99.90
53599;DHT22;39485;45.702;11.364;2023-09-19T19:43:40;21.50;99.90
53599;DHT22;39485;45.702;11.364;2023-09-19T19:46:07;21.50;99.90
53599;DHT22;39485;45.702;11.364;2023-09-19T19:48:34;21.40;99.90
53599;DHT22;39485;45.702;11.364;2023-09-19T19:51:04;21.40;99.90
53599;DHT22;39485;45.702;11.364;2023-09-19T19:53:32;21.40;99.90